Pucha Pucha, Argentina
Current Conditions -  °F | °C
As of 6:27 PM on Friday 24 Oct 2014 (Local Time) from SCAT Reporting Station
Broken Clouds Broken Clouds  
Wind Chill: 63°   Ceiling: 1900
Heat Index: 63°   Visibility: 6mi
Dew Point: 54°   Wind: 10mph
Humidity: 72%   Direction: 280°W
Pressure: 29.94"   Gusts: NA
Location:  28.34°S, 69.22°W
Report Text: SCAT 242127Z 28009KT 220V350 9999 BKN019 17/12 Q1014
Loading
Personal Weather Stations






























Interactive Weather Map
Tropical Storm Tracking
New forecast layout! Learn more

10-Day Weather Forecast

Advertisements
Track Severe Weather on mobile